Terminal Aerodrome Forecast
Issued by NWS

Home | Current Version | Previous Version | Text Only | Print | Product List | Glossary Off
Versions: 1 2 3 4 5 6 7 8 9 10 11 12 13 14 15 16 17 18 19 20 21 22 23 24 25 26 27 28 29 30

362
FTUS45 KGGW 220611 AAA
TAFOLF
TAF AMD
KOLF 220611Z 2206/2306 VRB04KT P6SM SCT005 OVC010
      TEMPO 2206/2210 1/4SM FZFG BKN002
     FM221000 26006KT 2SM BR VCSH OVC005
     FM221500 26007KT P6SM BKN009
     FM222100 26005KT P6SM SCT009
     FM230300 26004KT P6SM SCT009
     FM230500 VRB03KT P6SM BKN007=

USA.gov is the U.S. government's official web portal to all federal, state and local government web resources and services.